Řízení letového provozu České republiky
Letiste: LKKV Aktualizace: 24.03.2019 21:06:06  UTC
 METAR LKKV 24.03. 21:00 ...
METAR LKKV 242100Z 28003KT 8000 OVC017 05/04 Q1019 RMK REG QNH 1015=
 TAF LKKV 24.03. 17:00 AAA
TAF AMD LKKV 242100Z 2421/2600 29006KT 8000 OVC017      BECMG 2423/2501 2500 BR OVC011      TEMPO 2501/2505 1400 BR OVC006      TEMPO 2507/2600 3000 -SHRASN OVC011      PROB30 TEMPO 2510/2517 32014G26KT 1800 SHRASN BKN007TCU=